sensor_id;sensor_type;location;lat;lon;timestamp;P1;durP1;ratioP1;P2;durP2;ratioP2
40254;SDS011;25973;52.368;4.940;2022-11-13T00:00:55;16.55;;;7.97;;
40254;SDS011;25973;52.368;4.940;2022-11-13T00:03:22;16.90;;;8.27;;
40254;SDS011;25973;52.368;4.940;2022-11-13T00:05:47;14.48;;;7.90;;
40254;SDS011;25973;52.368;4.940;2022-11-13T00:08:22;16.83;;;7.75;;
40254;SDS011;25973;52.368;4.940;2022-11-13T00:10:47;24.70;;;10.63;;
40254;SDS011;25973;52.368;4.940;2022-11-13T00:13:13;19.33;;;9.27;;
40254;SDS011;25973;52.368;4.940;2022-11-13T00:15:38;18.00;;;7.95;;
40254;SDS011;25973;52.368;4.940;2022-11-13T00:18:04;13.50;;;7.65;;
40254;SDS011;25973;52.368;4.940;2022-11-13T00:20:29;17.38;;;7.35;;
40254;SDS011;25973;52.368;4.940;2022-11-13T00:22:55;16.23;;;7.75;;
40254;SDS011;25973;52.368;4.940;2022-11-13T00:25:21;18.52;;;7.80;;
40254;SDS011;25973;52.368;4.940;2022-11-13T00:27:46;16.25;;;7.82;;
40254;SDS011;25973;52.368;4.940;2022-11-13T00:30:12;18.52;;;8.23;;
40254;SDS011;25973;52.368;4.940;2022-11-13T00:32:37;14.32;;;8.23;;
40254;SDS011;25973;52.368;4.940;2022-11-13T00:35:04;23.23;;;8.55;;
40254;SDS011;25973;52.368;4.940;2022-11-13T00:37:30;18.33;;;7.85;;
40254;SDS011;25973;52.368;4.940;2022-11-13T00:39:55;17.77;;;7.85;;
40254;SDS011;25973;52.368;4.940;2022-11-13T00:42:21;24.67;;;8.75;;
40254;SDS011;25973;52.368;4.940;2022-11-13T00:44:46;15.88;;;7.50;;
40254;SDS011;25973;52.368;4.940;2022-11-13T00:47:12;19.70;;;8.50;;
40254;SDS011;25973;52.368;4.940;2022-11-13T00:49:37;18.52;;;8.95;;
40254;SDS011;25973;52.368;4.940;2022-11-13T00:52:03;16.33;;;8.10;;
40254;SDS011;25973;52.368;4.940;2022-11-13T00:54:29;16.08;;;8.00;;
40254;SDS011;25973;52.368;4.940;2022-11-13T00:56:54;17.83;;;8.77;;
40254;SDS011;25973;52.368;4.940;2022-11-13T00:59:20;18.88;;;8.45;;
40254;SDS011;25973;52.368;4.940;2022-11-13T01:01:45;17.58;;;8.07;;
40254;SDS011;25973;52.368;4.940;2022-11-13T01:04:11;15.13;;;8.23;;
40254;SDS011;25973;52.368;4.940;2022-11-13T01:06:37;15.18;;;7.90;;
40254;SDS011;25973;52.368;4.940;2022-11-13T01:09:02;16.48;;;6.90;;
40254;SDS011;25973;52.368;4.940;2022-11-13T01:11:29;19.65;;;7.75;;
40254;SDS011;25973;52.368;4.940;2022-11-13T01:13:55;16.17;;;7.95;;
40254;SDS011;25973;52.368;4.940;2022-11-13T01:16:21;17.80;;;7.40;;
40254;SDS011;25973;52.368;4.940;2022-11-13T01:18:49;19.00;;;7.22;;
40254;SDS011;25973;52.368;4.940;2022-11-13T01:23:42;14.82;;;7.00;;
40254;SDS011;25973;52.368;4.940;2022-11-13T01:26:12;17.20;;;8.02;;
40254;SDS011;25973;52.368;4.940;2022-11-13T01:28:39;15.82;;;7.45;;
40254;SDS011;25973;52.368;4.940;2022-11-13T01:31:06;14.18;;;7.85;;
40254;SDS011;25973;52.368;4.940;2022-11-13T01:33:33;15.68;;;7.03;;
40254;SDS011;25973;52.368;4.940;2022-11-13T01:36:05;16.00;;;6.63;;
40254;SDS011;25973;52.368;4.940;2022-11-13T01:38:32;20.13;;;6.53;;
40254;SDS011;25973;52.368;4.940;2022-11-13T01:40:59;12.02;;;6.20;;
40254;SDS011;25973;52.368;4.940;2022-11-13T01:43:26;11.73;;;6.60;;
40254;SDS011;25973;52.368;4.940;2022-11-13T01:48:41;13.13;;;6.03;;
40254;SDS011;25973;52.368;4.940;2022-11-13T01:51:12;18.90;;;6.50;;
40254;SDS011;25973;52.368;4.940;2022-11-13T01:53:42;21.55;;;6.18;;
40254;SDS011;25973;52.368;4.940;2022-11-13T01:56:10;15.35;;;6.10;;
40254;SDS011;25973;52.368;4.940;2022-11-13T01:58:37;12.45;;;6.05;;
40254;SDS011;25973;52.368;4.940;2022-11-13T02:01:04;14.80;;;6.43;;
40254;SDS011;25973;52.368;4.940;2022-11-13T02:03:30;14.10;;;6.57;;
40254;SDS011;25973;52.368;4.940;2022-11-13T02:05:55;16.15;;;6.07;;
40254;SDS011;25973;52.368;4.940;2022-11-13T02:08:21;12.93;;;5.93;;
40254;SDS011;25973;52.368;4.940;2022-11-13T02:10:47;13.93;;;6.22;;
40254;SDS011;25973;52.368;4.940;2022-11-13T02:13:13;15.15;;;6.75;;
40254;SDS011;25973;52.368;4.940;2022-11-13T02:15:40;12.35;;;5.65;;
40254;SDS011;25973;52.368;4.940;2022-11-13T02:18:06;11.02;;;5.78;;
40254;SDS011;25973;52.368;4.940;2022-11-13T02:23:34;14.82;;;6.97;;
40254;SDS011;25973;52.368;4.940;2022-11-13T02:26:25;14.80;;;6.63;;
40254;SDS011;25973;52.368;4.940;2022-11-13T02:28:53;16.40;;;7.20;;
40254;SDS011;25973;52.368;4.940;2022-11-13T02:31:19;12.38;;;6.20;;
40254;SDS011;25973;52.368;4.940;2022-11-13T02:33:44;13.60;;;6.30;;
40254;SDS011;25973;52.368;4.940;2022-11-13T02:36:10;13.23;;;7.38;;
40254;SDS011;25973;52.368;4.940;2022-11-13T02:38:36;14.88;;;6.40;;
40254;SDS011;25973;52.368;4.940;2022-11-13T02:41:04;13.32;;;6.50;;
40254;SDS011;25973;52.368;4.940;2022-11-13T02:43:30;15.13;;;6.55;;
40254;SDS011;25973;52.368;4.940;2022-11-13T02:45:55;12.75;;;6.22;;
40254;SDS011;25973;52.368;4.940;2022-11-13T02:48:21;13.15;;;5.57;;
40254;SDS011;25973;52.368;4.940;2022-11-13T02:50:46;21.25;;;6.35;;
40254;SDS011;25973;52.368;4.940;2022-11-13T02:53:12;13.52;;;5.78;;
40254;SDS011;25973;52.368;4.940;2022-11-13T02:55:37;21.48;;;7.95;;
40254;SDS011;25973;52.368;4.940;2022-11-13T02:58:03;13.40;;;6.20;;
40254;SDS011;25973;52.368;4.940;2022-11-13T03:00:29;13.73;;;6.60;;
40254;SDS011;25973;52.368;4.940;2022-11-13T03:02:55;14.52;;;5.78;;
40254;SDS011;25973;52.368;4.940;2022-11-13T03:05:21;11.27;;;5.03;;
40254;SDS011;25973;52.368;4.940;2022-11-13T03:07:47;13.63;;;5.75;;
40254;SDS011;25973;52.368;4.940;2022-11-13T03:10:13;16.83;;;6.03;;
40254;SDS011;25973;52.368;4.940;2022-11-13T03:12:38;12.55;;;5.65;;
40254;SDS011;25973;52.368;4.940;2022-11-13T03:15:05;16.20;;;5.95;;
40254;SDS011;25973;52.368;4.940;2022-11-13T03:17:31;10.00;;;5.35;;
40254;SDS011;25973;52.368;4.940;2022-11-13T03:19:58;12.23;;;5.18;;
40254;SDS011;25973;52.368;4.940;2022-11-13T03:22:26;11.38;;;5.50;;
40254;SDS011;25973;52.368;4.940;2022-11-13T03:24:52;10.02;;;4.93;;
40254;SDS011;25973;52.368;4.940;2022-11-13T03:27:18;10.10;;;5.13;;
40254;SDS011;25973;52.368;4.940;2022-11-13T03:29:43;10.05;;;5.13;;
40254;SDS011;25973;52.368;4.940;2022-11-13T03:32:09;8.63;;;5.05;;
40254;SDS011;25973;52.368;4.940;2022-11-13T03:34:34;14.38;;;5.95;;
40254;SDS011;25973;52.368;4.940;2022-11-13T03:37:00;12.55;;;5.47;;
40254;SDS011;25973;52.368;4.940;2022-11-13T03:39:26;9.38;;;5.28;;
40254;SDS011;25973;52.368;4.940;2022-11-13T03:41:51;12.98;;;6.45;;
40254;SDS011;25973;52.368;4.940;2022-11-13T03:44:17;11.50;;;5.65;;
40254;SDS011;25973;52.368;4.940;2022-11-13T03:46:42;17.73;;;6.25;;
40254;SDS011;25973;52.368;4.940;2022-11-13T03:49:08;14.00;;;6.35;;
40254;SDS011;25973;52.368;4.940;2022-11-13T03:51:33;19.42;;;7.70;;
40254;SDS011;25973;52.368;4.940;2022-11-13T03:53:59;12.82;;;5.93;;
40254;SDS011;25973;52.368;4.940;2022-11-13T03:56:24;12.60;;;6.13;;
40254;SDS011;25973;52.368;4.940;2022-11-13T03:58:50;12.57;;;6.38;;
40254;SDS011;25973;52.368;4.940;2022-11-13T04:01:16;11.93;;;6.78;;
40254;SDS011;25973;52.368;4.940;2022-11-13T04:03:41;12.68;;;6.20;;
40254;SDS011;25973;52.368;4.940;2022-11-13T04:06:07;12.68;;;5.90;;
40254;SDS011;25973;52.368;4.940;2022-11-13T04:08:33;9.93;;;5.78;;
40254;SDS011;25973;52.368;4.940;2022-11-13T04:11:10;17.02;;;6.50;;
40254;SDS011;25973;52.368;4.940;2022-11-13T04:13:36;14.93;;;5.90;;
40254;SDS011;25973;52.368;4.940;2022-11-13T04:16:02;12.38;;;6.68;;
40254;SDS011;25973;52.368;4.940;2022-11-13T04:18:29;12.48;;;6.13;;
40254;SDS011;25973;52.368;4.940;2022-11-13T04:20:58;12.73;;;6.43;;
40254;SDS011;25973;52.368;4.940;2022-11-13T04:23:24;16.10;;;7.53;;
40254;SDS011;25973;52.368;4.940;2022-11-13T04:25:53;15.82;;;7.80;;
40254;SDS011;25973;52.368;4.940;2022-11-13T04:28:18;14.73;;;6.82;;
40254;SDS011;25973;52.368;4.940;2022-11-13T04:30:44;11.82;;;5.85;;
40254;SDS011;25973;52.368;4.940;2022-11-13T04:33:10;11.10;;;6.80;;
40254;SDS011;25973;52.368;4.940;2022-11-13T04:35:35;17.35;;;6.93;;
40254;SDS011;25973;52.368;4.940;2022-11-13T04:38:01;12.88;;;7.38;;
40254;SDS011;25973;52.368;4.940;2022-11-13T04:40:27;18.17;;;6.50;;
40254;SDS011;25973;52.368;4.940;2022-11-13T04:42:52;13.90;;;7.50;;
40254;SDS011;25973;52.368;4.940;2022-11-13T04:45:20;15.52;;;7.28;;
40254;SDS011;25973;52.368;4.940;2022-11-13T04:47:47;11.40;;;6.53;;
40254;SDS011;25973;52.368;4.940;2022-11-13T04:50:13;16.67;;;6.93;;
40254;SDS011;25973;52.368;4.940;2022-11-13T04:52:40;17.55;;;6.97;;
40254;SDS011;25973;52.368;4.940;2022-11-13T04:55:06;16.52;;;6.70;;
40254;SDS011;25973;52.368;4.940;2022-11-13T04:57:32;18.55;;;6.57;;
40254;SDS011;25973;52.368;4.940;2022-11-13T05:00:03;12.85;;;6.15;;
40254;SDS011;25973;52.368;4.940;2022-11-13T05:02:30;13.23;;;6.75;;
40254;SDS011;25973;52.368;4.940;2022-11-13T05:04:55;18.08;;;6.68;;
40254;SDS011;25973;52.368;4.940;2022-11-13T05:07:21;15.55;;;6.70;;
40254;SDS011;25973;52.368;4.940;2022-11-13T05:09:47;13.68;;;5.97;;
40254;SDS011;25973;52.368;4.940;2022-11-13T05:12:12;11.73;;;6.32;;
40254;SDS011;25973;52.368;4.940;2022-11-13T05:14:38;12.82;;;6.65;;
40254;SDS011;25973;52.368;4.940;2022-11-13T05:17:04;9.77;;;6.22;;
40254;SDS011;25973;52.368;4.940;2022-11-13T05:19:31;16.38;;;6.63;;
40254;SDS011;25973;52.368;4.940;2022-11-13T05:22:03;11.20;;;6.55;;
40254;SDS011;25973;52.368;4.940;2022-11-13T05:24:30;17.70;;;6.38;;
40254;SDS011;25973;52.368;4.940;2022-11-13T05:26:55;11.73;;;6.07;;
40254;SDS011;25973;52.368;4.940;2022-11-13T05:29:21;11.23;;;5.35;;
40254;SDS011;25973;52.368;4.940;2022-11-13T05:31:47;11.57;;;5.75;;
40254;SDS011;25973;52.368;4.940;2022-11-13T05:34:14;13.60;;;5.97;;
40254;SDS011;25973;52.368;4.940;2022-11-13T05:36:40;14.77;;;6.18;;
40254;SDS011;25973;52.368;4.940;2022-11-13T05:39:06;12.45;;;6.65;;
40254;SDS011;25973;52.368;4.940;2022-11-13T05:41:31;13.52;;;6.25;;
40254;SDS011;25973;52.368;4.940;2022-11-13T05:43:57;14.38;;;6.85;;
40254;SDS011;25973;52.368;4.940;2022-11-13T05:46:24;10.15;;;6.72;;
40254;SDS011;25973;52.368;4.940;2022-11-13T05:48:57;10.43;;;6.13;;
40254;SDS011;25973;52.368;4.940;2022-11-13T05:51:25;15.30;;;7.70;;
40254;SDS011;25973;52.368;4.940;2022-11-13T05:53:53;12.35;;;7.32;;
40254;SDS011;25973;52.368;4.940;2022-11-13T05:56:20;11.10;;;6.63;;
40254;SDS011;25973;52.368;4.940;2022-11-13T05:58:54;10.88;;;7.00;;
40254;SDS011;25973;52.368;4.940;2022-11-13T06:01:21;14.30;;;7.05;;
40254;SDS011;25973;52.368;4.940;2022-11-13T06:03:49;15.23;;;7.32;;
40254;SDS011;25973;52.368;4.940;2022-11-13T06:06:16;12.07;;;7.03;;
40254;SDS011;25973;52.368;4.940;2022-11-13T06:08:43;16.08;;;7.40;;
40254;SDS011;25973;52.368;4.940;2022-11-13T06:11:11;13.43;;;7.10;;
40254;SDS011;25973;52.368;4.940;2022-11-13T06:13:38;10.98;;;6.75;;
40254;SDS011;25973;52.368;4.940;2022-11-13T06:16:06;15.75;;;8.60;;
40254;SDS011;25973;52.368;4.940;2022-11-13T06:18:36;14.45;;;8.15;;
40254;SDS011;25973;52.368;4.940;2022-11-13T06:21:04;11.73;;;7.38;;
40254;SDS011;25973;52.368;4.940;2022-11-13T06:23:32;14.73;;;7.38;;
40254;SDS011;25973;52.368;4.940;2022-11-13T06:26:00;12.75;;;7.03;;
40254;SDS011;25973;52.368;4.940;2022-11-13T06:28:26;15.40;;;7.90;;
40254;SDS011;25973;52.368;4.940;2022-11-13T06:30:52;13.18;;;6.97;;
40254;SDS011;25973;52.368;4.940;2022-11-13T06:33:18;17.90;;;6.47;;
40254;SDS011;25973;52.368;4.940;2022-11-13T06:35:46;10.85;;;6.78;;
40254;SDS011;25973;52.368;4.940;2022-11-13T06:38:11;18.13;;;7.68;;
40254;SDS011;25973;52.368;4.940;2022-11-13T06:40:37;10.57;;;5.78;;
40254;SDS011;25973;52.368;4.940;2022-11-13T06:43:03;12.15;;;5.82;;
40254;SDS011;25973;52.368;4.940;2022-11-13T06:45:28;15.35;;;6.05;;
40254;SDS011;25973;52.368;4.940;2022-11-13T06:47:54;12.10;;;5.82;;
40254;SDS011;25973;52.368;4.940;2022-11-13T06:50:19;9.40;;;5.57;;
40254;SDS011;25973;52.368;4.940;2022-11-13T06:52:45;10.95;;;6.20;;
40254;SDS011;25973;52.368;4.940;2022-11-13T06:55:10;11.90;;;6.35;;
40254;SDS011;25973;52.368;4.940;2022-11-13T06:57:36;10.93;;;6.32;;
40254;SDS011;25973;52.368;4.940;2022-11-13T07:00:02;12.70;;;5.75;;
40254;SDS011;25973;52.368;4.940;2022-11-13T07:02:29;9.13;;;5.03;;
40254;SDS011;25973;52.368;4.940;2022-11-13T07:04:55;9.73;;;5.70;;
40254;SDS011;25973;52.368;4.940;2022-11-13T07:07:20;10.43;;;5.30;;
40254;SDS011;25973;52.368;4.940;2022-11-13T07:09:46;13.10;;;5.93;;
40254;SDS011;25973;52.368;4.940;2022-11-13T07:12:11;10.43;;;5.80;;
40254;SDS011;25973;52.368;4.940;2022-11-13T07:14:37;12.23;;;5.95;;
40254;SDS011;25973;52.368;4.940;2022-11-13T07:17:02;10.35;;;6.28;;
40254;SDS011;25973;52.368;4.940;2022-11-13T07:19:28;10.57;;;5.78;;
40254;SDS011;25973;52.368;4.940;2022-11-13T07:21:53;11.02;;;6.22;;
40254;SDS011;25973;52.368;4.940;2022-11-13T07:24:19;12.45;;;6.35;;
40254;SDS011;25973;52.368;4.940;2022-11-13T07:26:44;12.18;;;5.80;;
40254;SDS011;25973;52.368;4.940;2022-11-13T07:29:10;10.18;;;5.63;;
40254;SDS011;25973;52.368;4.940;2022-11-13T07:31:36;10.30;;;6.43;;
40254;SDS011;25973;52.368;4.940;2022-11-13T07:34:01;10.20;;;5.63;;
40254;SDS011;25973;52.368;4.940;2022-11-13T07:36:27;10.27;;;6.10;;
40254;SDS011;25973;52.368;4.940;2022-11-13T07:38:52;12.73;;;6.22;;
40254;SDS011;25973;52.368;4.940;2022-11-13T07:41:18;11.45;;;6.53;;
40254;SDS011;25973;52.368;4.940;2022-11-13T07:43:43;11.25;;;6.82;;
40254;SDS011;25973;52.368;4.940;2022-11-13T07:46:09;13.73;;;5.82;;
40254;SDS011;25973;52.368;4.940;2022-11-13T07:48:35;14.20;;;6.30;;
40254;SDS011;25973;52.368;4.940;2022-11-13T07:51:03;10.60;;;6.72;;
40254;SDS011;25973;52.368;4.940;2022-11-13T07:53:29;12.73;;;5.72;;
40254;SDS011;25973;52.368;4.940;2022-11-13T07:55:55;14.18;;;6.38;;
40254;SDS011;25973;52.368;4.940;2022-11-13T07:58:23;10.85;;;6.15;;
40254;SDS011;25973;52.368;4.940;2022-11-13T08:00:49;11.18;;;6.20;;
40254;SDS011;25973;52.368;4.940;2022-11-13T08:03:15;14.57;;;6.95;;
40254;SDS011;25973;52.368;4.940;2022-11-13T08:05:41;13.88;;;6.32;;
40254;SDS011;25973;52.368;4.940;2022-11-13T08:08:10;16.33;;;6.30;;
40254;SDS011;25973;52.368;4.940;2022-11-13T08:10:36;12.70;;;6.32;;
40254;SDS011;25973;52.368;4.940;2022-11-13T08:13:03;11.60;;;6.60;;
40254;SDS011;25973;52.368;4.940;2022-11-13T08:15:31;10.20;;;6.00;;
40254;SDS011;25973;52.368;4.940;2022-11-13T08:17:57;12.52;;;6.45;;
40254;SDS011;25973;52.368;4.940;2022-11-13T08:20:25;11.13;;;5.85;;
40254;SDS011;25973;52.368;4.940;2022-11-13T08:22:54;11.10;;;6.47;;
40254;SDS011;25973;52.368;4.940;2022-11-13T08:25:21;8.05;;;5.32;;
40254;SDS011;25973;52.368;4.940;2022-11-13T08:27:47;10.10;;;6.18;;
40254;SDS011;25973;52.368;4.940;2022-11-13T08:30:13;13.85;;;6.53;;
40254;SDS011;25973;52.368;4.940;2022-11-13T08:32:39;11.43;;;6.28;;
40254;SDS011;25973;52.368;4.940;2022-11-13T08:35:04;11.07;;;5.78;;
40254;SDS011;25973;52.368;4.940;2022-11-13T08:37:31;9.02;;;5.68;;
40254;SDS011;25973;52.368;4.940;2022-11-13T08:39:57;12.00;;;5.95;;
40254;SDS011;25973;52.368;4.940;2022-11-13T08:42:22;11.85;;;6.10;;
40254;SDS011;25973;52.368;4.940;2022-11-13T08:44:48;10.90;;;5.60;;
40254;SDS011;25973;52.368;4.940;2022-11-13T08:47:13;9.68;;;5.95;;
40254;SDS011;25973;52.368;4.940;2022-11-13T08:49:39;11.93;;;6.65;;
40254;SDS011;25973;52.368;4.940;2022-11-13T08:52:05;11.63;;;6.50;;
40254;SDS011;25973;52.368;4.940;2022-11-13T08:54:30;11.93;;;6.55;;
40254;SDS011;25973;52.368;4.940;2022-11-13T08:56:56;12.38;;;6.28;;
40254;SDS011;25973;52.368;4.940;2022-11-13T08:59:21;12.35;;;5.93;;
40254;SDS011;25973;52.368;4.940;2022-11-13T09:01:47;10.07;;;6.03;;
40254;SDS011;25973;52.368;4.940;2022-11-13T09:04:13;13.82;;;6.95;;
40254;SDS011;25973;52.368;4.940;2022-11-13T09:06:39;13.18;;;6.40;;
40254;SDS011;25973;52.368;4.940;2022-11-13T09:09:04;10.02;;;5.35;;
40254;SDS011;25973;52.368;4.940;2022-11-13T09:11:30;11.63;;;5.90;;
40254;SDS011;25973;52.368;4.940;2022-11-13T09:13:56;9.82;;;5.97;;
40254;SDS011;25973;52.368;4.940;2022-11-13T09:16:22;12.40;;;6.10;;
40254;SDS011;25973;52.368;4.940;2022-11-13T09:18:48;10.88;;;5.47;;
40254;SDS011;25973;52.368;4.940;2022-11-13T09:21:14;9.85;;;5.38;;
40254;SDS011;25973;52.368;4.940;2022-11-13T09:23:40;8.57;;;5.25;;
40254;SDS011;25973;52.368;4.940;2022-11-13T09:26:06;10.68;;;5.80;;
40254;SDS011;25973;52.368;4.940;2022-11-13T09:28:31;11.32;;;5.18;;
40254;SDS011;25973;52.368;4.940;2022-11-13T09:30:57;9.15;;;5.45;;
40254;SDS011;25973;52.368;4.940;2022-11-13T09:33:22;7.63;;;4.50;;
40254;SDS011;25973;52.368;4.940;2022-11-13T09:35:48;11.70;;;4.80;;
40254;SDS011;25973;52.368;4.940;2022-11-13T09:38:14;10.93;;;5.50;;
40254;SDS011;25973;52.368;4.940;2022-11-13T09:40:41;10.27;;;5.47;;
40254;SDS011;25973;52.368;4.940;2022-11-13T09:48:41;8.10;;;4.88;;
40254;SDS011;25973;52.368;4.940;2022-11-13T09:51:19;9.88;;;4.68;;
40254;SDS011;25973;52.368;4.940;2022-11-13T09:53:55;8.38;;;4.38;;
40254;SDS011;25973;52.368;4.940;2022-11-13T09:59:39;8.60;;;4.40;;
40254;SDS011;25973;52.368;4.940;2022-11-13T10:07:53;5.85;;;4.15;;
40254;SDS011;25973;52.368;4.940;2022-11-13T10:13:09;5.28;;;3.95;;
40254;SDS011;25973;52.368;4.940;2022-11-13T10:15:39;9.30;;;4.50;;
40254;SDS011;25973;52.368;4.940;2022-11-13T10:18:15;6.10;;;3.85;;
40254;SDS011;25973;52.368;4.940;2022-11-13T10:20:46;7.50;;;3.85;;
40254;SDS011;25973;52.368;4.940;2022-11-13T10:23:17;12.68;;;4.05;;
40254;SDS011;25973;52.368;4.940;2022-11-13T10:25:53;7.53;;;3.40;;
40254;SDS011;25973;52.368;4.940;2022-11-13T10:28:21;8.63;;;3.50;;
40254;SDS011;25973;52.368;4.940;2022-11-13T10:30:48;5.10;;;2.88;;
40254;SDS011;25973;52.368;4.940;2022-11-13T10:33:18;6.28;;;2.80;;
40254;SDS011;25973;52.368;4.940;2022-11-13T10:35:51;6.00;;;2.70;;
40254;SDS011;25973;52.368;4.940;2022-11-13T10:38:35;6.35;;;3.38;;
40254;SDS011;25973;52.368;4.940;2022-11-13T10:41:09;7.45;;;2.70;;
40254;SDS011;25973;52.368;4.940;2022-11-13T10:43:47;6.55;;;2.95;;
40254;SDS011;25973;52.368;4.940;2022-11-13T10:46:31;5.18;;;2.72;;
40254;SDS011;25973;52.368;4.940;2022-11-13T10:48:58;3.88;;;2.30;;
40254;SDS011;25973;52.368;4.940;2022-11-13T10:51:35;9.50;;;3.53;;
40254;SDS011;25973;52.368;4.940;2022-11-13T10:54:15;5.65;;;3.10;;
40254;SDS011;25973;52.368;4.940;2022-11-13T10:56:44;8.45;;;3.15;;
40254;SDS011;25973;52.368;4.940;2022-11-13T10:59:21;6.88;;;3.00;;
40254;SDS011;25973;52.368;4.940;2022-11-13T11:01:47;5.93;;;3.17;;
40254;SDS011;25973;52.368;4.940;2022-11-13T11:04:23;5.95;;;2.67;;
40254;SDS011;25973;52.368;4.940;2022-11-13T11:06:53;5.68;;;3.35;;
40254;SDS011;25973;52.368;4.940;2022-11-13T11:09:24;5.85;;;3.33;;
40254;SDS011;25973;52.368;4.940;2022-11-13T11:12:12;4.93;;;3.00;;
40254;SDS011;25973;52.368;4.940;2022-11-13T11:14:53;3.30;;;2.38;;
40254;SDS011;25973;52.368;4.940;2022-11-13T11:17:27;5.72;;;2.83;;
40254;SDS011;25973;52.368;4.940;2022-11-13T11:20:18;6.80;;;2.20;;
40254;SDS011;25973;52.368;4.940;2022-11-13T11:25:51;5.22;;;2.33;;
40254;SDS011;25973;52.368;4.940;2022-11-13T11:31:00;4.53;;;2.53;;
40254;SDS011;25973;52.368;4.940;2022-11-13T11:33:31;11.00;;;2.83;;
40254;SDS011;25973;52.368;4.940;2022-11-13T11:36:21;5.57;;;2.67;;
40254;SDS011;25973;52.368;4.940;2022-11-13T11:38:57;6.45;;;3.28;;
40254;SDS011;25973;52.368;4.940;2022-11-13T11:41:44;7.78;;;3.88;;
40254;SDS011;25973;52.368;4.940;2022-11-13T11:44:24;7.25;;;3.65;;
40254;SDS011;25973;52.368;4.940;2022-11-13T11:47:03;5.13;;;3.33;;
40254;SDS011;25973;52.368;4.940;2022-11-13T11:49:35;7.57;;;3.80;;
40254;SDS011;25973;52.368;4.940;2022-11-13T12:00:36;9.00;;;3.78;;
40254;SDS011;25973;52.368;4.940;2022-11-13T12:08:29;8.77;;;3.90;;
40254;SDS011;25973;52.368;4.940;2022-11-13T12:13:48;6.53;;;2.92;;
40254;SDS011;25973;52.368;4.940;2022-11-13T12:16:24;4.63;;;2.67;;
40254;SDS011;25973;52.368;4.940;2022-11-13T12:22:03;9.13;;;4.03;;
40254;SDS011;25973;52.368;4.940;2022-11-13T12:24:44;7.80;;;4.20;;
40254;SDS011;25973;52.368;4.940;2022-11-13T12:32:43;7.50;;;3.97;;
40254;SDS011;25973;52.368;4.940;2022-11-13T12:38:01;6.93;;;4.00;;
40254;SDS011;25973;52.368;4.940;2022-11-13T12:50:43;9.40;;;3.67;;
40254;SDS011;25973;52.368;4.940;2022-11-13T12:53:23;7.75;;;3.40;;
40254;SDS011;25973;52.368;4.940;2022-11-13T12:55:58;8.13;;;3.40;;
40254;SDS011;25973;52.368;4.940;2022-11-13T12:58:27;6.88;;;3.20;;
40254;SDS011;25973;52.368;4.940;2022-11-13T13:09:23;5.72;;;3.17;;
40254;SDS011;25973;52.368;4.940;2022-11-13T13:18:02;7.75;;;3.88;;
40254;SDS011;25973;52.368;4.940;2022-11-13T13:20:40;6.47;;;3.33;;
40254;SDS011;25973;52.368;4.940;2022-11-13T13:23:11;9.07;;;4.47;;
40254;SDS011;25973;52.368;4.940;2022-11-13T13:25:38;8.13;;;4.13;;
40254;SDS011;25973;52.368;4.940;2022-11-13T13:38:59;6.53;;;4.18;;
40254;SDS011;25973;52.368;4.940;2022-11-13T13:41:51;12.30;;;3.58;;
40254;SDS011;25973;52.368;4.940;2022-11-13T13:47:26;9.18;;;4.32;;
40254;SDS011;25973;52.368;4.940;2022-11-13T13:49:56;7.47;;;4.13;;
40254;SDS011;25973;52.368;4.940;2022-11-13T13:52:25;7.90;;;3.75;;
40254;SDS011;25973;52.368;4.940;2022-11-13T13:54:55;7.78;;;4.07;;
40254;SDS011;25973;52.368;4.940;2022-11-13T13:57:21;8.00;;;4.10;;
40254;SDS011;25973;52.368;4.940;2022-11-13T13:59:48;8.07;;;3.80;;
40254;SDS011;25973;52.368;4.940;2022-11-13T14:02:16;9.63;;;4.07;;
40254;SDS011;25973;52.368;4.940;2022-11-13T14:04:44;6.82;;;3.95;;
40254;SDS011;25973;52.368;4.940;2022-11-13T14:07:20;7.97;;;4.30;;
40254;SDS011;25973;52.368;4.940;2022-11-13T14:12:41;9.10;;;4.00;;
40254;SDS011;25973;52.368;4.940;2022-11-13T14:15:21;7.65;;;4.10;;
40254;SDS011;25973;52.368;4.940;2022-11-13T14:17:49;9.00;;;3.92;;
40254;SDS011;25973;52.368;4.940;2022-11-13T14:20:15;4.93;;;3.80;;
40254;SDS011;25973;52.368;4.940;2022-11-13T14:22:41;7.32;;;3.83;;
40254;SDS011;25973;52.368;4.940;2022-11-13T14:25:16;7.93;;;4.22;;
40254;SDS011;25973;52.368;4.940;2022-11-13T14:27:50;9.63;;;5.10;;
40254;SDS011;25973;52.368;4.940;2022-11-13T14:30:26;7.20;;;4.30;;
40254;SDS011;25973;52.368;4.940;2022-11-13T14:32:54;7.03;;;4.13;;
40254;SDS011;25973;52.368;4.940;2022-11-13T14:35:21;7.95;;;5.00;;
40254;SDS011;25973;52.368;4.940;2022-11-13T14:37:49;9.10;;;5.00;;
40254;SDS011;25973;52.368;4.940;2022-11-13T14:42:51;9.15;;;4.70;;
40254;SDS011;25973;52.368;4.940;2022-11-13T14:45:26;8.30;;;4.70;;
40254;SDS011;25973;52.368;4.940;2022-11-13T14:48:00;9.32;;;5.22;;
40254;SDS011;25973;52.368;4.940;2022-11-13T14:50:35;11.00;;;5.30;;
40254;SDS011;25973;52.368;4.940;2022-11-13T14:53:05;8.65;;;4.50;;
40254;SDS011;25973;52.368;4.940;2022-11-13T14:55:48;11.13;;;5.97;;
40254;SDS011;25973;52.368;4.940;2022-11-13T14:58:28;7.18;;;4.90;;
40254;SDS011;25973;52.368;4.940;2022-11-13T15:01:13;12.50;;;5.95;;
40254;SDS011;25973;52.368;4.940;2022-11-13T15:03:43;8.00;;;4.75;;
40254;SDS011;25973;52.368;4.940;2022-11-13T15:06:23;11.50;;;6.05;;
40254;SDS011;25973;52.368;4.940;2022-11-13T15:08:53;8.77;;;4.03;;
40254;SDS011;25973;52.368;4.940;2022-11-13T15:11:25;6.88;;;4.25;;
40254;SDS011;25973;52.368;4.940;2022-11-13T15:13:51;11.88;;;5.18;;
40254;SDS011;25973;52.368;4.940;2022-11-13T15:16:29;5.53;;;3.55;;
40254;SDS011;25973;52.368;4.940;2022-11-13T15:18:59;7.35;;;4.35;;
40254;SDS011;25973;52.368;4.940;2022-11-13T15:21:27;9.23;;;4.07;;
40254;SDS011;25973;52.368;4.940;2022-11-13T15:23:54;7.15;;;3.72;;
40254;SDS011;25973;52.368;4.940;2022-11-13T15:26:25;5.88;;;3.78;;
40254;SDS011;25973;52.368;4.940;2022-11-13T15:28:51;7.88;;;3.80;;
40254;SDS011;25973;52.368;4.940;2022-11-13T15:31:18;6.88;;;3.55;;
40254;SDS011;25973;52.368;4.940;2022-11-13T15:33:44;11.45;;;4.72;;
40254;SDS011;25973;52.368;4.940;2022-11-13T15:36:10;8.18;;;4.07;;
40254;SDS011;25973;52.368;4.940;2022-11-13T15:38:35;7.78;;;4.28;;
40254;SDS011;25973;52.368;4.940;2022-11-13T15:41:03;6.97;;;3.78;;
40254;SDS011;25973;52.368;4.940;2022-11-13T15:43:35;8.02;;;4.47;;
40254;SDS011;25973;52.368;4.940;2022-11-13T15:46:01;6.03;;;3.70;;
40254;SDS011;25973;52.368;4.940;2022-11-13T15:48:26;8.25;;;4.00;;
40254;SDS011;25973;52.368;4.940;2022-11-13T15:50:52;7.45;;;4.28;;
40254;SDS011;25973;52.368;4.940;2022-11-13T15:53:17;6.25;;;3.88;;
40254;SDS011;25973;52.368;4.940;2022-11-13T15:55:43;6.18;;;3.92;;
40254;SDS011;25973;52.368;4.940;2022-11-13T15:58:13;7.78;;;4.03;;
40254;SDS011;25973;52.368;4.940;2022-11-13T16:00:42;5.90;;;3.75;;
40254;SDS011;25973;52.368;4.940;2022-11-13T16:03:10;7.10;;;3.90;;
40254;SDS011;25973;52.368;4.940;2022-11-13T16:05:36;9.10;;;4.45;;
40254;SDS011;25973;52.368;4.940;2022-11-13T16:08:10;6.53;;;4.03;;
40254;SDS011;25973;52.368;4.940;2022-11-13T16:10:37;8.32;;;4.50;;
40254;SDS011;25973;52.368;4.940;2022-11-13T16:13:03;8.65;;;4.40;;
40254;SDS011;25973;52.368;4.940;2022-11-13T16:15:29;8.65;;;4.57;;
40254;SDS011;25973;52.368;4.940;2022-11-13T16:17:54;8.02;;;5.05;;
40254;SDS011;25973;52.368;4.940;2022-11-13T16:20:21;9.52;;;5.43;;
40254;SDS011;25973;52.368;4.940;2022-11-13T16:22:47;9.95;;;4.32;;
40254;SDS011;25973;52.368;4.940;2022-11-13T16:25:18;10.25;;;5.13;;
40254;SDS011;25973;52.368;4.940;2022-11-13T16:27:46;7.22;;;4.55;;